sensor_id;sensor_type;location;lat;lon;timestamp;P1;P2;P0
67714;PMS7003;54505;44.022;20.458;2023-05-07T00:01:11;23.00;23.00;14.25
67714;PMS7003;54505;44.022;20.458;2023-05-07T00:03:37;30.75;24.75;15.00
67714;PMS7003;54505;44.022;20.458;2023-05-07T00:06:03;21.00;19.50;12.25
67714;PMS7003;54505;44.022;20.458;2023-05-07T00:08:29;22.50;21.00;15.00
67714;PMS7003;54505;44.022;20.458;2023-05-07T00:10:55;28.50;24.00;16.00
67714;PMS7003;54505;44.022;20.458;2023-05-07T00:13:20;27.50;24.50;15.25
67714;PMS7003;54505;44.022;20.458;2023-05-07T00:15:46;23.75;22.25;15.75
67714;PMS7003;54505;44.022;20.458;2023-05-07T00:18:12;24.50;22.50;15.50
67714;PMS7003;54505;44.022;20.458;2023-05-07T00:20:37;30.00;25.25;17.00
67714;PMS7003;54505;44.022;20.458;2023-05-07T00:23:03;25.00;23.75;16.00
67714;PMS7003;54505;44.022;20.458;2023-05-07T00:25:29;29.75;24.00;15.25
67714;PMS7003;54505;44.022;20.458;2023-05-07T00:27:55;23.00;21.75;17.00
67714;PMS7003;54505;44.022;20.458;2023-05-07T00:30:20;24.50;21.50;14.00
67714;PMS7003;54505;44.022;20.458;2023-05-07T00:32:46;29.25;25.00;17.00
67714;PMS7003;54505;44.022;20.458;2023-05-07T00:35:14;29.75;27.00;18.50
67714;PMS7003;54505;44.022;20.458;2023-05-07T00:37:39;29.25;26.75;17.75
67714;PMS7003;54505;44.022;20.458;2023-05-07T00:40:06;27.50;25.75;16.25
67714;PMS7003;54505;44.022;20.458;2023-05-07T00:42:33;27.75;26.00;18.00
67714;PMS7003;54505;44.022;20.458;2023-05-07T00:44:58;29.00;25.00;15.50
67714;PMS7003;54505;44.022;20.458;2023-05-07T00:47:24;28.50;24.50;18.00
67714;PMS7003;54505;44.022;20.458;2023-05-07T00:49:50;28.75;24.50;16.75
67714;PMS7003;54505;44.022;20.458;2023-05-07T00:52:16;27.75;23.75;15.25
67714;PMS7003;54505;44.022;20.458;2023-05-07T00:54:42;29.50;25.25;17.75
67714;PMS7003;54505;44.022;20.458;2023-05-07T00:57:11;28.50;26.75;18.00
67714;PMS7003;54505;44.022;20.458;2023-05-07T00:59:37;23.00;22.00;14.75
67714;PMS7003;54505;44.022;20.458;2023-05-07T01:02:02;19.75;17.50;11.75
67714;PMS7003;54505;44.022;20.458;2023-05-07T01:04:29;23.00;20.75;12.50
67714;PMS7003;54505;44.022;20.458;2023-05-07T01:06:57;23.75;22.00;14.75
67714;PMS7003;54505;44.022;20.458;2023-05-07T01:09:24;29.25;26.25;15.25
67714;PMS7003;54505;44.022;20.458;2023-05-07T01:11:50;29.75;26.50;17.25
67714;PMS7003;54505;44.022;20.458;2023-05-07T01:14:17;22.50;22.50;15.50
67714;PMS7003;54505;44.022;20.458;2023-05-07T01:16:43;27.00;23.50;15.25
67714;PMS7003;54505;44.022;20.458;2023-05-07T01:19:09;26.50;20.00;14.50
67714;PMS7003;54505;44.022;20.458;2023-05-07T01:21:37;25.25;21.25;13.75
67714;PMS7003;54505;44.022;20.458;2023-05-07T01:24:03;26.50;22.50;14.75
67714;PMS7003;54505;44.022;20.458;2023-05-07T01:26:30;23.00;20.00;13.50
67714;PMS7003;54505;44.022;20.458;2023-05-07T01:28:55;22.75;18.50;13.50
67714;PMS7003;54505;44.022;20.458;2023-05-07T01:31:21;32.50;27.00;17.75
67714;PMS7003;54505;44.022;20.458;2023-05-07T01:33:48;20.50;18.50;13.50
67714;PMS7003;54505;44.022;20.458;2023-05-07T01:36:15;26.75;21.00;15.00
67714;PMS7003;54505;44.022;20.458;2023-05-07T01:38:42;22.75;20.75;13.25
67714;PMS7003;54505;44.022;20.458;2023-05-07T01:41:08;24.25;21.25;14.50
67714;PMS7003;54505;44.022;20.458;2023-05-07T01:43:34;20.75;18.50;13.50
67714;PMS7003;54505;44.022;20.458;2023-05-07T01:46:00;25.75;22.75;14.00
67714;PMS7003;54505;44.022;20.458;2023-05-07T01:48:26;24.75;19.50;12.75
67714;PMS7003;54505;44.022;20.458;2023-05-07T01:50:52;21.75;20.75;14.25
67714;PMS7003;54505;44.022;20.458;2023-05-07T01:53:18;25.75;20.25;14.50
67714;PMS7003;54505;44.022;20.458;2023-05-07T01:55:44;29.00;26.50;18.50
67714;PMS7003;54505;44.022;20.458;2023-05-07T01:58:10;20.25;19.75;13.00
67714;PMS7003;54505;44.022;20.458;2023-05-07T02:00:37;23.00;21.75;14.50
67714;PMS7003;54505;44.022;20.458;2023-05-07T02:03:02;19.25;18.25;12.75
67714;PMS7003;54505;44.022;20.458;2023-05-07T02:05:28;25.25;22.50;14.75
67714;PMS7003;54505;44.022;20.458;2023-05-07T02:07:53;26.75;19.00;14.75
67714;PMS7003;54505;44.022;20.458;2023-05-07T02:10:19;23.75;21.50;14.75
67714;PMS7003;54505;44.022;20.458;2023-05-07T02:12:45;19.50;17.00;11.25
67714;PMS7003;54505;44.022;20.458;2023-05-07T02:15:11;19.75;18.50;12.25
67714;PMS7003;54505;44.022;20.458;2023-05-07T02:17:39;20.75;16.75;12.00
67714;PMS7003;54505;44.022;20.458;2023-05-07T02:20:22;23.00;21.25;13.25
67714;PMS7003;54505;44.022;20.458;2023-05-07T02:22:47;19.50;18.25;12.00
67714;PMS7003;54505;44.022;20.458;2023-05-07T02:25:13;23.25;19.75;12.75
67714;PMS7003;54505;44.022;20.458;2023-05-07T02:27:39;22.50;18.00;13.25
67714;PMS7003;54505;44.022;20.458;2023-05-07T02:30:04;23.75;21.00;13.25
67714;PMS7003;54505;44.022;20.458;2023-05-07T02:32:30;25.50;20.00;13.25
67714;PMS7003;54505;44.022;20.458;2023-05-07T02:34:56;26.25;22.75;15.25
67714;PMS7003;54505;44.022;20.458;2023-05-07T02:37:21;26.25;21.00;16.25
67714;PMS7003;54505;44.022;20.458;2023-05-07T02:39:47;17.50;16.75;12.25
67714;PMS7003;54505;44.022;20.458;2023-05-07T02:42:16;21.25;19.00;14.25
67714;PMS7003;54505;44.022;20.458;2023-05-07T02:44:42;19.25;16.00;12.00
67714;PMS7003;54505;44.022;20.458;2023-05-07T02:47:08;17.50;17.00;12.25
67714;PMS7003;54505;44.022;20.458;2023-05-07T02:49:35;18.00;16.00;11.25
67714;PMS7003;54505;44.022;20.458;2023-05-07T02:52:00;23.50;20.75;15.75
67714;PMS7003;54505;44.022;20.458;2023-05-07T02:54:26;19.75;19.75;12.75
67714;PMS7003;54505;44.022;20.458;2023-05-07T02:56:51;19.00;19.00;12.25
67714;PMS7003;54505;44.022;20.458;2023-05-07T02:59:17;21.75;20.50;13.50
67714;PMS7003;54505;44.022;20.458;2023-05-07T03:01:43;18.25;18.25;10.75
67714;PMS7003;54505;44.022;20.458;2023-05-07T03:04:10;26.00;18.75;13.75
67714;PMS7003;54505;44.022;20.458;2023-05-07T03:06:36;25.75;18.00;14.25
67714;PMS7003;54505;44.022;20.458;2023-05-07T03:09:02;22.50;17.25;11.25
67714;PMS7003;54505;44.022;20.458;2023-05-07T03:11:27;19.75;19.75;14.00
67714;PMS7003;54505;44.022;20.458;2023-05-07T03:13:53;23.25;22.25;14.50
67714;PMS7003;54505;44.022;20.458;2023-05-07T03:16:18;25.25;22.50;15.75
67714;PMS7003;54505;44.022;20.458;2023-05-07T03:18:44;24.25;20.50;15.00
67714;PMS7003;54505;44.022;20.458;2023-05-07T03:21:10;26.00;19.00;11.75
67714;PMS7003;54505;44.022;20.458;2023-05-07T03:24:01;23.75;21.00;14.25
67714;PMS7003;54505;44.022;20.458;2023-05-07T03:26:26;29.00;21.75;15.50
67714;PMS7003;54505;44.022;20.458;2023-05-07T03:28:52;25.00;22.50;15.75
67714;PMS7003;54505;44.022;20.458;2023-05-07T03:31:17;23.75;22.00;14.00
67714;PMS7003;54505;44.022;20.458;2023-05-07T03:33:50;25.50;23.75;15.50
67714;PMS7003;54505;44.022;20.458;2023-05-07T03:36:17;29.00;24.75;17.50
67714;PMS7003;54505;44.022;20.458;2023-05-07T03:38:43;28.25;24.25;14.00
67714;PMS7003;54505;44.022;20.458;2023-05-07T03:41:08;24.50;21.25;16.00
67714;PMS7003;54505;44.022;20.458;2023-05-07T03:43:34;23.25;21.25;13.00
67714;PMS7003;54505;44.022;20.458;2023-05-07T03:46:00;21.50;20.75;13.25
67714;PMS7003;54505;44.022;20.458;2023-05-07T03:48:26;17.25;17.25;12.25
67714;PMS7003;54505;44.022;20.458;2023-05-07T03:50:51;17.75;15.25;11.75
67714;PMS7003;54505;44.022;20.458;2023-05-07T03:53:17;23.00;19.50;13.00
67714;PMS7003;54505;44.022;20.458;2023-05-07T03:55:42;22.25;20.25;14.25
67714;PMS7003;54505;44.022;20.458;2023-05-07T03:58:08;27.75;24.25;12.00
67714;PMS7003;54505;44.022;20.458;2023-05-07T04:00:34;23.00;23.00;17.25
67714;PMS7003;54505;44.022;20.458;2023-05-07T04:03:04;25.75;23.25;15.50
67714;PMS7003;54505;44.022;20.458;2023-05-07T04:05:30;22.75;20.25;13.50
67714;PMS7003;54505;44.022;20.458;2023-05-07T04:07:57;19.00;16.00;9.50
67714;PMS7003;54505;44.022;20.458;2023-05-07T04:10:23;21.75;20.25;14.25
67714;PMS7003;54505;44.022;20.458;2023-05-07T04:12:49;18.50;18.50;12.25
67714;PMS7003;54505;44.022;20.458;2023-05-07T04:15:14;20.25;17.25;12.00
67714;PMS7003;54505;44.022;20.458;2023-05-07T04:17:40;19.25;15.50;11.00
67714;PMS7003;54505;44.022;20.458;2023-05-07T04:20:08;22.75;19.00;14.00
67714;PMS7003;54505;44.022;20.458;2023-05-07T04:22:34;21.75;20.75;15.25
67714;PMS7003;54505;44.022;20.458;2023-05-07T04:25:00;19.00;18.00;14.25
67714;PMS7003;54505;44.022;20.458;2023-05-07T04:27:26;20.50;17.00;11.00
67714;PMS7003;54505;44.022;20.458;2023-05-07T04:29:51;17.25;15.25;9.50
67714;PMS7003;54505;44.022;20.458;2023-05-07T04:32:21;23.25;20.25;12.25
67714;PMS7003;54505;44.022;20.458;2023-05-07T04:34:47;20.00;19.75;12.25
67714;PMS7003;54505;44.022;20.458;2023-05-07T04:37:13;21.25;19.75;14.75
67714;PMS7003;54505;44.022;20.458;2023-05-07T04:39:38;24.50;20.00;14.50
67714;PMS7003;54505;44.022;20.458;2023-05-07T04:42:04;22.50;20.75;14.75
67714;PMS7003;54505;44.022;20.458;2023-05-07T04:44:32;26.25;22.50;15.75
67714;PMS7003;54505;44.022;20.458;2023-05-07T04:46:58;24.00;22.00;17.00
67714;PMS7003;54505;44.022;20.458;2023-05-07T04:49:24;21.25;20.00;14.75
67714;PMS7003;54505;44.022;20.458;2023-05-07T04:51:49;22.00;20.75;15.25
67714;PMS7003;54505;44.022;20.458;2023-05-07T04:54:18;22.50;21.00;15.00
67714;PMS7003;54505;44.022;20.458;2023-05-07T04:56:44;19.75;18.50;14.25
67714;PMS7003;54505;44.022;20.458;2023-05-07T04:59:10;22.75;21.25;15.75
67714;PMS7003;54505;44.022;20.458;2023-05-07T05:01:35;21.25;20.50;14.75
67714;PMS7003;54505;44.022;20.458;2023-05-07T05:04:01;27.50;23.00;16.00
67714;PMS7003;54505;44.022;20.458;2023-05-07T05:06:27;22.50;21.75;14.75
67714;PMS7003;54505;44.022;20.458;2023-05-07T05:08:53;20.75;18.50;14.25
67714;PMS7003;54505;44.022;20.458;2023-05-07T05:11:18;20.50;20.50;15.25
67714;PMS7003;54505;44.022;20.458;2023-05-07T05:13:44;20.25;18.50;14.25
67714;PMS7003;54505;44.022;20.458;2023-05-07T05:16:10;21.50;19.25;14.50
67714;PMS7003;54505;44.022;20.458;2023-05-07T05:18:35;19.50;18.75;14.00
67714;PMS7003;54505;44.022;20.458;2023-05-07T05:21:01;21.00;19.00;13.00
67714;PMS7003;54505;44.022;20.458;2023-05-07T05:23:27;21.75;20.75;15.25
67714;PMS7003;54505;44.022;20.458;2023-05-07T05:25:56;18.75;17.00;12.00
67714;PMS7003;54505;44.022;20.458;2023-05-07T05:28:23;20.50;20.25;15.00
67714;PMS7003;54505;44.022;20.458;2023-05-07T05:30:50;23.00;22.75;15.25
67714;PMS7003;54505;44.022;20.458;2023-05-07T05:33:15;21.75;20.00;15.75
67714;PMS7003;54505;44.022;20.458;2023-05-07T05:35:42;22.00;20.50;14.00
67714;PMS7003;54505;44.022;20.458;2023-05-07T05:38:07;27.00;22.00;15.00
67714;PMS7003;54505;44.022;20.458;2023-05-07T05:40:33;25.75;24.50;18.75
67714;PMS7003;54505;44.022;20.458;2023-05-07T05:42:59;20.75;20.75;14.00
67714;PMS7003;54505;44.022;20.458;2023-05-07T05:45:25;22.25;20.50;14.25
67714;PMS7003;54505;44.022;20.458;2023-05-07T05:47:51;16.25;16.00;10.75
67714;PMS7003;54505;44.022;20.458;2023-05-07T05:50:17;21.25;19.00;13.50
67714;PMS7003;54505;44.022;20.458;2023-05-07T05:52:42;19.50;19.25;13.00
67714;PMS7003;54505;44.022;20.458;2023-05-07T05:55:08;24.00;23.75;16.25
67714;PMS7003;54505;44.022;20.458;2023-05-07T05:57:34;16.50;14.00;11.50
67714;PMS7003;54505;44.022;20.458;2023-05-07T06:00:01;18.75;16.75;12.00
67714;PMS7003;54505;44.022;20.458;2023-05-07T06:02:27;17.00;15.00;11.00
67714;PMS7003;54505;44.022;20.458;2023-05-07T06:04:54;23.50;22.50;15.00
67714;PMS7003;54505;44.022;20.458;2023-05-07T06:07:19;28.50;26.50;17.75
67714;PMS7003;54505;44.022;20.458;2023-05-07T06:09:45;25.25;21.50;15.50
67714;PMS7003;54505;44.022;20.458;2023-05-07T06:12:11;21.00;20.50;14.75
67714;PMS7003;54505;44.022;20.458;2023-05-07T06:14:37;19.25;18.25;13.00
67714;PMS7003;54505;44.022;20.458;2023-05-07T06:17:02;26.75;26.75;19.25
67714;PMS7003;54505;44.022;20.458;2023-05-07T06:19:28;17.25;15.75;13.00
67714;PMS7003;54505;44.022;20.458;2023-05-07T06:21:54;16.75;16.50;13.00
67714;PMS7003;54505;44.022;20.458;2023-05-07T06:24:22;20.25;18.75;15.00
67714;PMS7003;54505;44.022;20.458;2023-05-07T06:26:47;20.00;19.00;14.50
67714;PMS7003;54505;44.022;20.458;2023-05-07T06:29:13;19.00;17.00;13.00
67714;PMS7003;54505;44.022;20.458;2023-05-07T06:31:39;12.75;12.25;9.25
67714;PMS7003;54505;44.022;20.458;2023-05-07T06:34:05;15.00;15.00;11.00
67714;PMS7003;54505;44.022;20.458;2023-05-07T06:36:30;13.25;12.50;9.00
67714;PMS7003;54505;44.022;20.458;2023-05-07T06:38:56;11.50;11.50;9.00
67714;PMS7003;54505;44.022;20.458;2023-05-07T06:41:22;15.50;15.50;12.75
67714;PMS7003;54505;44.022;20.458;2023-05-07T06:43:48;15.25;14.50;11.75
67714;PMS7003;54505;44.022;20.458;2023-05-07T06:46:13;12.75;12.75;9.75
67714;PMS7003;54505;44.022;20.458;2023-05-07T06:48:39;12.50;12.50;10.25
67714;PMS7003;54505;44.022;20.458;2023-05-07T06:51:04;12.50;10.50;9.75
67714;PMS7003;54505;44.022;20.458;2023-05-07T06:53:31;11.50;10.50;7.00
67714;PMS7003;54505;44.022;20.458;2023-05-07T06:55:56;10.75;10.00;8.00
67714;PMS7003;54505;44.022;20.458;2023-05-07T06:58:22;14.50;13.00;9.50
67714;PMS7003;54505;44.022;20.458;2023-05-07T07:00:48;12.50;11.00;8.50
67714;PMS7003;54505;44.022;20.458;2023-05-07T07:03:14;15.25;12.75;10.75
67714;PMS7003;54505;44.022;20.458;2023-05-07T07:05:40;9.00;9.00;7.75
67714;PMS7003;54505;44.022;20.458;2023-05-07T07:08:06;12.75;12.25;9.00
67714;PMS7003;54505;44.022;20.458;2023-05-07T07:10:31;14.25;11.50;9.00
67714;PMS7003;54505;44.022;20.458;2023-05-07T07:12:57;14.25;14.25;10.25
67714;PMS7003;54505;44.022;20.458;2023-05-07T07:15:23;14.50;13.50;10.00
67714;PMS7003;54505;44.022;20.458;2023-05-07T07:17:50;10.25;10.25;8.50
67714;PMS7003;54505;44.022;20.458;2023-05-07T07:20:16;13.00;9.75;8.50
67714;PMS7003;54505;44.022;20.458;2023-05-07T07:22:42;12.25;12.25;10.00
67714;PMS7003;54505;44.022;20.458;2023-05-07T07:25:07;13.75;11.75;9.75
67714;PMS7003;54505;44.022;20.458;2023-05-07T07:27:33;11.50;10.50;8.75
67714;PMS7003;54505;44.022;20.458;2023-05-07T07:29:59;13.75;11.25;9.75
67714;PMS7003;54505;44.022;20.458;2023-05-07T07:32:25;11.75;11.25;8.75
67714;PMS7003;54505;44.022;20.458;2023-05-07T07:34:51;11.50;11.50;8.75
67714;PMS7003;54505;44.022;20.458;2023-05-07T07:37:17;11.50;11.50;9.00
67714;PMS7003;54505;44.022;20.458;2023-05-07T07:39:42;8.75;8.75;7.50
67714;PMS7003;54505;44.022;20.458;2023-05-07T07:42:08;12.00;12.00;11.00
67714;PMS7003;54505;44.022;20.458;2023-05-07T07:44:36;11.75;11.75;8.25
67714;PMS7003;54505;44.022;20.458;2023-05-07T07:47:02;13.50;13.50;10.00
67714;PMS7003;54505;44.022;20.458;2023-05-07T07:49:28;10.50;10.50;8.00
67714;PMS7003;54505;44.022;20.458;2023-05-07T07:51:54;12.00;10.75;8.50
67714;PMS7003;54505;44.022;20.458;2023-05-07T07:54:19;9.50;9.00;8.00
67714;PMS7003;54505;44.022;20.458;2023-05-07T07:56:45;11.00;10.00;8.00
67714;PMS7003;54505;44.022;20.458;2023-05-07T07:59:11;11.25;11.25;9.50
67714;PMS7003;54505;44.022;20.458;2023-05-07T08:01:36;10.25;10.25;8.00
67714;PMS7003;54505;44.022;20.458;2023-05-07T08:04:02;11.75;11.75;9.50
67714;PMS7003;54505;44.022;20.458;2023-05-07T08:06:28;10.00;10.00;6.75
67714;PMS7003;54505;44.022;20.458;2023-05-07T08:08:54;13.50;11.00;8.50
67714;PMS7003;54505;44.022;20.458;2023-05-07T08:11:20;10.75;10.75;8.25
67714;PMS7003;54505;44.022;20.458;2023-05-07T08:13:46;8.25;8.25;7.75
67714;PMS7003;54505;44.022;20.458;2023-05-07T08:16:12;9.75;9.75;7.75
67714;PMS7003;54505;44.022;20.458;2023-05-07T08:18:38;5.75;5.75;3.00
67714;PMS7003;54505;44.022;20.458;2023-05-07T08:21:04;8.75;8.75;7.00
67714;PMS7003;54505;44.022;20.458;2023-05-07T08:23:29;8.25;8.25;7.00
67714;PMS7003;54505;44.022;20.458;2023-05-07T08:25:56;11.75;10.00;6.25
67714;PMS7003;54505;44.022;20.458;2023-05-07T08:28:21;10.25;9.75;6.75
67714;PMS7003;54505;44.022;20.458;2023-05-07T08:30:47;12.00;11.50;9.00
67714;PMS7003;54505;44.022;20.458;2023-05-07T08:33:13;11.25;11.25;8.50
67714;PMS7003;54505;44.022;20.458;2023-05-07T08:35:38;9.75;9.75;8.00
67714;PMS7003;54505;44.022;20.458;2023-05-07T08:38:04;11.25;11.25;8.00
67714;PMS7003;54505;44.022;20.458;2023-05-07T08:40:30;8.25;8.25;7.25
67714;PMS7003;54505;44.022;20.458;2023-05-07T08:43:00;13.00;11.50;7.75
67714;PMS7003;54505;44.022;20.458;2023-05-07T08:45:27;9.00;9.00;7.00
67714;PMS7003;54505;44.022;20.458;2023-05-07T08:47:55;10.00;10.00;7.50
67714;PMS7003;54505;44.022;20.458;2023-05-07T08:50:22;9.25;7.75;7.00
67714;PMS7003;54505;44.022;20.458;2023-05-07T08:52:48;10.50;9.75;7.25
67714;PMS7003;54505;44.022;20.458;2023-05-07T08:55:14;8.00;8.00;7.00
67714;PMS7003;54505;44.022;20.458;2023-05-07T08:57:40;11.00;10.00;7.50
67714;PMS7003;54505;44.022;20.458;2023-05-07T09:00:06;9.00;7.25;7.00
67714;PMS7003;54505;44.022;20.458;2023-05-07T09:02:32;6.00;6.00;5.50
67714;PMS7003;54505;44.022;20.458;2023-05-07T09:04:58;8.00;8.00;7.00
67714;PMS7003;54505;44.022;20.458;2023-05-07T09:07:24;8.75;8.75;7.75
67714;PMS7003;54505;44.022;20.458;2023-05-07T09:09:50;8.00;8.00;6.75
67714;PMS7003;54505;44.022;20.458;2023-05-07T09:12:17;9.25;9.25;8.25
67714;PMS7003;54505;44.022;20.458;2023-05-07T09:14:43;13.50;13.50;10.25
67714;PMS7003;54505;44.022;20.458;2023-05-07T09:17:08;8.00;8.00;7.00
67714;PMS7003;54505;44.022;20.458;2023-05-07T09:19:34;7.50;7.50;7.00
67714;PMS7003;54505;44.022;20.458;2023-05-07T09:22:00;9.50;8.00;7.00
67714;PMS7003;54505;44.022;20.458;2023-05-07T09:24:27;7.75;7.50;6.75
67714;PMS7003;54505;44.022;20.458;2023-05-07T09:26:55;7.75;7.75;7.00
67714;PMS7003;54505;44.022;20.458;2023-05-07T09:29:23;8.00;8.00;7.00
67714;PMS7003;54505;44.022;20.458;2023-05-07T09:31:48;8.50;8.50;7.00
67714;PMS7003;54505;44.022;20.458;2023-05-07T09:34:14;9.00;8.00;7.00
67714;PMS7003;54505;44.022;20.458;2023-05-07T09:36:39;6.50;6.50;5.75
67714;PMS7003;54505;44.022;20.458;2023-05-07T09:39:05;9.50;9.50;7.00
67714;PMS7003;54505;44.022;20.458;2023-05-07T09:41:31;6.25;6.25;5.00
67714;PMS7003;54505;44.022;20.458;2023-05-07T09:43:57;7.00;7.00;6.25
67714;PMS7003;54505;44.022;20.458;2023-05-07T09:46:32;8.00;8.00;7.00
67714;PMS7003;54505;44.022;20.458;2023-05-07T09:49:00;10.75;9.00;6.75
67714;PMS7003;54505;44.022;20.458;2023-05-07T09:54:01;7.75;7.75;7.25
67714;PMS7003;54505;44.022;20.458;2023-05-07T09:56:29;7.25;7.25;6.50
67714;PMS7003;54505;44.022;20.458;2023-05-07T09:58:55;12.25;12.25;10.00
67714;PMS7003;54505;44.022;20.458;2023-05-07T10:01:21;7.00;7.00;5.00
67714;PMS7003;54505;44.022;20.458;2023-05-07T10:03:48;9.25;9.00;8.00
67714;PMS7003;54505;44.022;20.458;2023-05-07T10:06:15;10.00;10.00;8.00
67714;PMS7003;54505;44.022;20.458;2023-05-07T10:08:41;9.00;8.75;6.50
67714;PMS7003;54505;44.022;20.458;2023-05-07T10:11:07;12.00;12.00;10.00
67714;PMS7003;54505;44.022;20.458;2023-05-07T10:13:35;8.00;8.00;7.00
67714;PMS7003;54505;44.022;20.458;2023-05-07T10:16:04;8.75;8.75;7.25
67714;PMS7003;54505;44.022;20.458;2023-05-07T10:18:31;10.75;10.25;8.00
67714;PMS7003;54505;44.022;20.458;2023-05-07T10:21:01;11.50;11.50;9.00
67714;PMS7003;54505;44.022;20.458;2023-05-07T10:23:59;14.00;11.00;8.75
67714;PMS7003;54505;44.022;20.458;2023-05-07T10:26:25;9.75;9.75;8.50
67714;PMS7003;54505;44.022;20.458;2023-05-07T10:28:54;11.00;10.00;8.00
67714;PMS7003;54505;44.022;20.458;2023-05-07T10:33:56;11.25;10.50;8.50
67714;PMS7003;54505;44.022;20.458;2023-05-07T10:36:22;15.50;13.25;10.00
67714;PMS7003;54505;44.022;20.458;2023-05-07T10:38:49;10.75;10.75;9.25
67714;PMS7003;54505;44.022;20.458;2023-05-07T10:41:14;11.25;10.50;9.00
67714;PMS7003;54505;44.022;20.458;2023-05-07T10:43:42;8.75;8.75;7.00
67714;PMS7003;54505;44.022;20.458;2023-05-07T10:46:11;20.25;18.50;15.50
67714;PMS7003;54505;44.022;20.458;2023-05-07T10:51:21;11.00;10.75;8.75
67714;PMS7003;54505;44.022;20.458;2023-05-07T10:53:47;10.75;9.75;9.00
67714;PMS7003;54505;44.022;20.458;2023-05-07T10:58:45;13.75;11.75;9.00
67714;PMS7003;54505;44.022;20.458;2023-05-07T11:01:10;17.50;17.50;12.00
67714;PMS7003;54505;44.022;20.458;2023-05-07T11:04:12;14.00;12.50;9.25
67714;PMS7003;54505;44.022;20.458;2023-05-07T11:06:24;10.25;10.25;9.00
67714;PMS7003;54505;44.022;20.458;2023-05-07T11:11:18;12.75;11.25;9.50
67714;PMS7003;54505;44.022;20.458;2023-05-07T11:13:46;10.75;9.75;8.75
67714;PMS7003;54505;44.022;20.458;2023-05-07T11:16:16;9.50;9.50;8.75
67714;PMS7003;54505;44.022;20.458;2023-05-07T11:18:46;9.50;9.50;7.25
67714;PMS7003;54505;44.022;20.458;2023-05-07T11:21:12;14.00;11.50;9.50
67714;PMS7003;54505;44.022;20.458;2023-05-07T11:26:04;11.75;11.00;9.00
67714;PMS7003;54505;44.022;20.458;2023-05-07T11:28:32;11.25;11.25;9.00
67714;PMS7003;54505;44.022;20.458;2023-05-07T11:31:02;7.75;7.75;5.25
67714;PMS7003;54505;44.022;20.458;2023-05-07T11:33:27;18.75;18.00;14.25
67714;PMS7003;54505;44.022;20.458;2023-05-07T11:35:53;12.00;11.00;8.00
67714;PMS7003;54505;44.022;20.458;2023-05-07T11:38:19;8.75;8.75;7.00
67714;PMS7003;54505;44.022;20.458;2023-05-07T11:40:52;9.00;9.00;7.75
67714;PMS7003;54505;44.022;20.458;2023-05-07T11:43:18;7.75;7.25;5.75
67714;PMS7003;54505;44.022;20.458;2023-05-07T11:45:47;7.00;7.00;5.75
67714;PMS7003;54505;44.022;20.458;2023-05-07T11:48:13;9.75;9.75;7.75
67714;PMS7003;54505;44.022;20.458;2023-05-07T11:50:52;11.25;9.25;7.50
67714;PMS7003;54505;44.022;20.458;2023-05-07T11:53:18;9.25;9.00;7.50
67714;PMS7003;54505;44.022;20.458;2023-05-07T11:55:45;9.25;8.50;6.00
67714;PMS7003;54505;44.022;20.458;2023-05-07T11:58:11;6.25;6.00;5.00
67714;PMS7003;54505;44.022;20.458;2023-05-07T12:00:37;6.25;6.25;5.00
67714;PMS7003;54505;44.022;20.458;2023-05-07T12:03:04;6.50;6.50;5.00
67714;PMS7003;54505;44.022;20.458;2023-05-07T12:05:29;18.50;18.50;15.50
67714;PMS7003;54505;44.022;20.458;2023-05-07T12:07:56;11.75;10.50;8.50
67714;PMS7003;54505;44.022;20.458;2023-05-07T12:10:21;16.75;16.00;11.25
67714;PMS7003;54505;44.022;20.458;2023-05-07T12:12:47;7.50;7.50;5.75
67714;PMS7003;54505;44.022;20.458;2023-05-07T12:15:16;19.00;19.00;16.75
67714;PMS7003;54505;44.022;20.458;2023-05-07T12:17:42;17.25;15.00;11.50
67714;PMS7003;54505;44.022;20.458;2023-05-07T12:20:08;9.00;9.00;7.00
67714;PMS7003;54505;44.022;20.458;2023-05-07T12:22:35;11.50;10.75;7.75
67714;PMS7003;54505;44.022;20.458;2023-05-07T12:25:01;8.75;8.75;6.75
67714;PMS7003;54505;44.022;20.458;2023-05-07T12:27:27;13.25;10.50;9.00
67714;PMS7003;54505;44.022;20.458;2023-05-07T12:29:53;12.00;11.00;10.00
67714;PMS7003;54505;44.022;20.458;2023-05-07T12:32:20;8.75;8.75;7.00
67714;PMS7003;54505;44.022;20.458;2023-05-07T12:34:47;9.75;9.75;8.00
67714;PMS7003;54505;44.022;20.458;2023-05-07T12:37:14;9.00;9.00;7.75
67714;PMS7003;54505;44.022;20.458;2023-05-07T12:39:49;11.25;10.50;8.75
67714;PMS7003;54505;44.022;20.458;2023-05-07T12:42:16;9.00;9.00;7.50
67714;PMS7003;54505;44.022;20.458;2023-05-07T12:44:41;10.25;8.75;6.50
67714;PMS7003;54505;44.022;20.458;2023-05-07T12:47:11;5.00;5.00;4.00
67714;PMS7003;54505;44.022;20.458;2023-05-07T12:49:37;10.25;10.25;8.00
67714;PMS7003;54505;44.022;20.458;2023-05-07T12:52:04;12.50;10.75;8.75
67714;PMS7003;54505;44.022;20.458;2023-05-07T12:54:30;7.25;7.25;6.00
67714;PMS7003;54505;44.022;20.458;2023-05-07T12:57:04;10.50;10.50;8.50
67714;PMS7003;54505;44.022;20.458;2023-05-07T12:59:31;9.00;9.00;7.00
67714;PMS7003;54505;44.022;20.458;2023-05-07T13:01:57;8.25;8.25;6.75
67714;PMS7003;54505;44.022;20.458;2023-05-07T13:04:24;10.50;7.00;5.00
67714;PMS7003;54505;44.022;20.458;2023-05-07T13:06:49;5.25;5.25;4.00
67714;PMS7003;54505;44.022;20.458;2023-05-07T13:09:15;9.25;9.00;6.75
67714;PMS7003;54505;44.022;20.458;2023-05-07T13:11:41;5.50;4.75;4.00
67714;PMS7003;54505;44.022;20.458;2023-05-07T13:14:06;10.25;10.00;8.75
67714;PMS7003;54505;44.022;20.458;2023-05-07T13:16:32;14.00;13.00;8.75
67714;PMS7003;54505;44.022;20.458;2023-05-07T13:18:58;8.75;8.75;6.25
67714;PMS7003;54505;44.022;20.458;2023-05-07T13:21:23;6.00;6.00;5.50
67714;PMS7003;54505;44.022;20.458;2023-05-07T13:23:49;6.75;6.75;4.50
67714;PMS7003;54505;44.022;20.458;2023-05-07T13:26:15;6.50;6.50;5.00
67714;PMS7003;54505;44.022;20.458;2023-05-07T13:28:40;7.75;7.00;6.00
67714;PMS7003;54505;44.022;20.458;2023-05-07T13:31:07;5.50;5.00;4.50
67714;PMS7003;54505;44.022;20.458;2023-05-07T13:33:32;11.25;9.00;8.50
67714;PMS7003;54505;44.022;20.458;2023-05-07T13:35:58;8.75;7.75;6.25
67714;PMS7003;54505;44.022;20.458;2023-05-07T13:38:26;10.00;6.75;4.00
67714;PMS7003;54505;44.022;20.458;2023-05-07T13:40:51;5.75;5.75;4.00
67714;PMS7003;54505;44.022;20.458;2023-05-07T13:43:17;7.75;6.75;4.00
67714;PMS7003;54505;44.022;20.458;2023-05-07T13:45:44;6.00;6.00;4.00
67714;PMS7003;54505;44.022;20.458;2023-05-07T13:48:09;5.75;5.75;4.25
67714;PMS7003;54505;44.022;20.458;2023-05-07T13:50:35;5.25;5.25;5.00
67714;PMS7003;54505;44.022;20.458;2023-05-07T13:53:01;13.00;12.25;11.25
67714;PMS7003;54505;44.022;20.458;2023-05-07T13:55:28;5.25;5.25;5.00
67714;PMS7003;54505;44.022;20.458;2023-05-07T13:57:54;8.00;8.00;6.25